Lake Stevens, WA (98258)

10:49 PM PDT on September 14, 2014 (GMT -0700)
Catherine Creek | Change Station
CLOSE
Current Station
Personal Weather Station
Location: Lake Stevens, WA
Elevation: 246 ft
Nearby Weather Stations

Elev 246 ft 48.03 °N, 122.06 °W | Updated 4 seconds ago

Clear
Clear
54.9 °F
Feels Like 54.9 °F
N
0.0
Wind Variable Wind from NW
Gusts 0.0 mph

Today
High -- | Low -- °F
--% Chance of Precip.
Yesterday
High -- | Low -- °F
Precip. -- in
6:44 AM 7:22 PM
Waning Gibbous, 58% visible
Pressure 29.87 in
Visibility 10.0 miles
Clouds Clear
Dew Point 50 °F
Humidity 84%
Rainfall 0.00 in
Snow Depth 0 in , 0 in , 0 in
UV 0 out of 12
Pollen 1.10 out of 12
PM2.5 Good
Flu Activity Not available.
METAR KAWO 150535Z AUTO 00000KT 10SM CLR 14/09 A2987 RMK AO1

More Conditions Fewer Conditions

Pressure 29.87 in
Visibility 10.0 miles
Clouds Clear
Dew Point 50 °F
Humidity 84%
Rainfall 0.00 in
Snow Depth 0 in , 0 in , 0 in
UV 0 out of 12
Pollen 1.10 out of 12
PM2.5 Good
Flu Activity Not available.
METAR KAWO 150535Z AUTO 00000KT 10SM CLR 14/09 A2987 RMK AO1

More Conditions Fewer Conditions

10-Day Weather Forecast

Almanac

Astronomy

Sep. 14, 2014 Rise Set
Actual Time 6:44 AM PDT 7:22 PM PDT
Civil Twilight 6:12 AM PDT 7:53 PM PDT
Nautical Twilight 5:35 AM PDT 8:30 PM PDT
Astronomical Twilight 4:56 AM PDT 9:09 PM PDT
Moon 10:53 PM PDT (9/14) 1:21 PM PDT (9/14)
Length of Visible Light 13h 40m
Length of Day
12h 38m
Tomorrow will be 3m 27s shorter.
Waning Gibbous, 58% of the Moon is Illuminated
Sep 15
Waning Gibbous
Sep 15
Last Quarter
Sep 24
New
Oct 1
First Quarter
Oct 8
Full

Yesterday's Extremes

State Highs State Lows

Community

WunderPhotos

Upload Photos

1,753,416 photos uploaded!

WunderBlogs® & News

Nearby

Air Quality

  Air Quality AQ Index Pollutant
Yesterday Good
PM2.5
Yesterday Good
OZONE
Current Good
PM2.5
Sunday Good
OZONE
Sunday Good
PM2.5
Monday Good
PM2.5
Monday Good
OZONE
Tuesday Good
OZONE
Tuesday Good
PM2.5

Snow Depth

Station Depth Elevation
Fish Lake 0 in 3371 ft
Lyman Lake 0 in 5900 ft
Harts Pass 0 in 6500 ft
Dungeness 0 in 4100 ft
Potato Hill 0 in 4500 ft

Earthquake Activity

City Distance Mag. Time & Date
No recent earthquake activity has been reported nearby.
Minimum magnitude displayed is 2.5.

Coastal Water Temperatures

Place Temperature
Port Townsend, WA 52.0 °F
Seattle, WA 55.9 °F
Friday Harbor, WA 52.0 °F
Tacoma, WA 55.9 °F

Nearby Weather Stations